createdAt,value
2019-04-04T00:00:58.702Z,6.66
2019-04-04T00:01:58.698Z,6.72
2019-04-04T00:02:58.463Z,6.72
2019-04-04T00:03:58.693Z,6.64
2019-04-04T00:05:00.271Z,6.59
2019-04-04T00:06:01.266Z,6.59
2019-04-04T00:07:00.415Z,6.51
2019-04-04T00:08:00.015Z,6.52
2019-04-04T00:09:00.057Z,6.48
2019-04-04T00:09:58.384Z,6.51
2019-04-04T00:10:58.629Z,6.52
2019-04-04T00:11:58.616Z,6.54
2019-04-04T00:12:58.614Z,6.44
2019-04-04T00:13:58.102Z,6.62
2019-04-04T00:14:58.376Z,6.51
2019-04-04T00:15:58.342Z,6.56
2019-04-04T00:16:58.579Z,6.54
2019-04-04T00:17:59.166Z,6.46
2019-04-04T00:19:01.122Z,6.51
2019-04-04T00:19:58.939Z,6.52
2019-04-04T00:20:58.525Z,6.54
2019-04-04T00:21:58.528Z,6.54
2019-04-04T00:22:58.303Z,6.57
2019-04-04T00:23:58.257Z,6.6
2019-04-04T00:24:58.523Z,6.54
2019-04-04T00:25:58.511Z,6.59
2019-04-04T00:26:58.521Z,6.56
2019-04-04T00:27:58.510Z,6.51
2019-04-04T00:29:01.103Z,6.48
2019-04-04T00:29:58.238Z,6.52
2019-04-04T00:30:58.488Z,6.54
2019-04-04T00:31:58.466Z,6.52
2019-04-04T00:32:58.459Z,6.45
2019-04-04T00:34:00.419Z,6.48
2019-04-04T00:34:59.771Z,6.56
2019-04-04T00:35:58.191Z,6.51
2019-04-04T00:36:58.431Z,6.6
2019-04-04T00:37:58.432Z,6.6
2019-04-04T00:38:58.172Z,6.51
2019-04-04T00:39:58.431Z,6.51
2019-04-04T00:40:57.909Z,6.62
2019-04-04T00:41:58.183Z,6.56
2019-04-04T00:42:58.129Z,6.49
2019-04-04T00:43:57.880Z,6.6
2019-04-04T00:45:00.370Z,6.63
2019-04-04T00:46:00.440Z,6.59
2019-04-04T00:46:58.356Z,6.56
2019-04-04T00:47:58.370Z,6.6
2019-04-04T00:48:58.355Z,6.64
2019-04-04T00:49:58.326Z,6.56
2019-04-04T00:50:58.073Z,6.57
2019-04-04T00:51:58.327Z,6.56
2019-04-04T00:52:58.334Z,6.51
2019-04-04T00:53:58.058Z,6.59
2019-04-04T00:54:57.814Z,6.64
2019-04-04T00:55:58.310Z,6.56
2019-04-04T00:56:58.110Z,6.6
2019-04-04T00:57:58.103Z,6.54
2019-04-04T00:58:58.281Z,6.6
2019-04-04T00:59:58.781Z,6.57
2019-04-04T01:00:59.751Z,6.6
2019-04-04T01:02:01.612Z,6.52
2019-04-04T01:03:00.547Z,6.54
2019-04-04T01:04:00.238Z,6.54
2019-04-04T01:04:57.745Z,6.51
2019-04-04T01:05:58.265Z,6.46
2019-04-04T01:06:57.699Z,6.57
2019-04-04T01:07:57.942Z,6.6
2019-04-04T01:08:57.945Z,6.57
2019-04-04T01:09:57.685Z,6.59
2019-04-04T01:10:57.929Z,6.63
2019-04-04T01:11:57.678Z,6.57
2019-04-04T01:12:58.159Z,6.6
2019-04-04T01:14:00.216Z,6.54
2019-04-04T01:15:00.079Z,6.54
2019-04-04T01:15:58.128Z,6.45
2019-04-04T01:16:57.881Z,6.46
2019-04-04T01:17:58.120Z,6.45
2019-04-04T01:18:58.109Z,6.46
2019-04-04T01:19:58.101Z,6.49
2019-04-04T01:20:58.100Z,6.45
2019-04-04T01:21:58.737Z,6.51
2019-04-04T01:23:00.615Z,6.45
2019-04-04T01:24:00.636Z,6.42
2019-04-04T01:24:58.990Z,6.51
2019-04-04T01:25:58.053Z,6.44
2019-04-04T01:26:58.056Z,6.51
2019-04-04T01:27:57.846Z,6.44
2019-04-04T01:28:58.106Z,6.39
2019-04-04T01:29:57.527Z,6.39
2019-04-04T01:30:57.789Z,6.45
2019-04-04T01:31:57.756Z,6.24
2019-04-04T01:32:57.519Z,6.27
2019-04-04T01:33:57.744Z,6.28
2019-04-04T01:34:58.027Z,6.14
2019-04-04T01:35:59.260Z,6.19
2019-04-04T01:37:00.757Z,6.11
2019-04-04T01:38:00.365Z,6.17
2019-04-04T01:38:58.040Z,6.14
2019-04-04T01:39:57.939Z,6.17
2019-04-04T01:40:59.598Z,6.19
2019-04-04T01:41:57.933Z,6.14
2019-04-04T01:42:57.678Z,6.12
2019-04-04T01:44:11.215Z,6.16
2019-04-04T01:44:57.896Z,6.19
2019-04-04T01:45:57.907Z,6.14
2019-04-04T01:46:57.634Z,6.16
2019-04-04T01:47:57.626Z,6.09
2019-04-04T01:48:57.629Z,6.16
2019-04-04T01:49:57.630Z,6.09
2019-04-04T01:50:58.685Z,6.11
2019-04-04T01:52:00.228Z,6.09
2019-04-04T01:53:01.199Z,6.12
2019-04-04T01:53:58.986Z,6.08
2019-04-04T01:54:57.832Z,6.16
2019-04-04T01:55:57.311Z,6.09
2019-04-04T01:56:57.558Z,6.11
2019-04-04T01:57:57.808Z,6.14
2019-04-04T01:58:57.540Z,6.14
2019-04-04T01:59:57.772Z,6.22
2019-04-04T02:00:57.276Z,6.17
2019-04-04T02:01:57.506Z,6.27
2019-04-04T02:02:57.504Z,6.12
2019-04-04T02:03:58.249Z,6.19
2019-04-04T02:05:00.252Z,6.11
2019-04-04T02:06:00.380Z,6.09
2019-04-04T02:06:59.128Z,6.12
2019-04-04T02:07:58.849Z,6.11
2019-04-04T02:08:57.709Z,5.94
2019-04-04T02:09:57.714Z,5.97
2019-04-04T02:10:57.695Z,5.89
2019-04-04T02:11:57.184Z,5.87
2019-04-04T02:12:57.423Z,5.89
2019-04-04T02:13:57.411Z,5.91
2019-04-04T02:14:57.151Z,5.99
2019-04-04T02:15:57.394Z,5.99
2019-04-04T02:16:57.408Z,5.94
2019-04-04T02:17:58.271Z,6.04
2019-04-04T02:18:59.081Z,6.04
2019-04-04T02:20:00.509Z,6.05
2019-04-04T02:21:00.175Z,5.98
2019-04-04T02:21:57.813Z,6.04
2019-04-04T02:22:57.455Z,5.91
2019-04-04T02:23:57.589Z,6.01
2019-04-04T02:24:57.578Z,5.98
2019-04-04T02:25:57.576Z,5.99
2019-04-04T02:26:57.550Z,6.07
2019-04-04T02:27:57.050Z,5.94
2019-04-04T02:28:57.373Z,6.02
2019-04-04T02:29:57.546Z,6.01
2019-04-04T02:30:57.282Z,5.99
2019-04-04T02:31:59.095Z,6.02
2019-04-04T02:33:01.994Z,6.02
2019-04-04T02:33:57.513Z,6.11
2019-04-04T02:34:57.251Z,6.08
2019-04-04T02:35:57.489Z,6.09
2019-04-04T02:36:57.225Z,6.14
2019-04-04T02:38:00.098Z,6.11
2019-04-04T02:38:57.559Z,5.99
2019-04-04T02:39:57.457Z,6.04
2019-04-04T02:40:56.946Z,6.04
2019-04-04T02:41:57.186Z,6.09
2019-04-04T02:43:00.101Z,5.99
2019-04-04T02:43:59.304Z,5.98
2019-04-04T02:44:57.195Z,6.05
2019-04-04T02:45:57.163Z,5.98
2019-04-04T02:46:56.911Z,6.01
2019-04-04T02:47:57.390Z,5.99
2019-04-04T02:49:00.519Z,6.04
2019-04-04T02:50:00.544Z,6.12
2019-04-04T02:50:57.376Z,5.98
2019-04-04T02:51:57.112Z,6.07
2019-04-04T02:52:57.346Z,5.99
2019-04-04T02:53:57.768Z,6.04
2019-04-04T02:55:02.065Z,5.97
2019-04-04T02:55:57.091Z,5.94
2019-04-04T02:56:57.330Z,5.98
2019-04-04T02:57:56.828Z,5.97
2019-04-04T02:58:57.323Z,5.99
2019-04-04T02:59:58.920Z,5.99
2019-04-04T03:01:01.878Z,5.87
2019-04-04T03:01:56.788Z,5.89
2019-04-04T03:02:57.029Z,5.93
2019-04-04T03:03:57.050Z,5.97
2019-04-04T03:04:57.263Z,5.89
2019-04-04T03:05:57.059Z,5.97
2019-04-04T03:07:02.263Z,5.9
2019-04-04T03:07:57.282Z,5.94
2019-04-04T03:08:57.238Z,5.91
2019-04-04T03:09:56.985Z,5.89
2019-04-04T03:10:57.208Z,5.93
2019-04-04T03:11:59.378Z,5.9
2019-04-04T03:13:00.658Z,5.98
2019-04-04T03:13:56.939Z,6.01
2019-04-04T03:14:57.177Z,6.02
2019-04-04T03:15:56.954Z,6.07
2019-04-04T03:17:01.211Z,6.16
2019-04-04T03:17:56.904Z,6.09
2019-04-04T03:18:56.643Z,6.11
2019-04-04T03:19:57.152Z,6.12
2019-04-04T03:20:56.895Z,6.11
2019-04-04T03:21:59.930Z,6.16
2019-04-04T03:23:00.031Z,6.08
2019-04-04T03:23:57.137Z,6.19
2019-04-04T03:24:57.103Z,6.12
2019-04-04T03:25:57.152Z,6.09
2019-04-04T03:26:58.334Z,6.09
2019-04-04T03:28:00.390Z,6.12
2019-04-04T03:28:56.836Z,6.07
2019-04-04T03:29:57.102Z,6.14
2019-04-04T03:31:06.392Z,6.16
2019-04-04T03:31:56.850Z,6.19
2019-04-04T03:32:59.771Z,6.14
2019-04-04T03:33:57.097Z,6.16
2019-04-04T03:34:57.027Z,6.19
2019-04-04T03:35:57.527Z,6.12
2019-04-04T03:36:56.750Z,6.16
2019-04-04T03:37:56.758Z,6.12
2019-04-04T03:38:56.770Z,6.27
2019-04-04T03:39:58.251Z,6.28
2019-04-04T03:41:00.017Z,6.33
2019-04-04T03:41:56.989Z,6.42
2019-04-04T03:42:56.447Z,6.38
2019-04-04T03:43:56.449Z,6.44
2019-04-04T03:44:58.704Z,6.41
2019-04-04T03:46:00.113Z,6.2
2019-04-04T03:46:56.675Z,6.22
2019-04-04T03:47:56.924Z,6.36
2019-04-04T03:48:56.948Z,6.31
2019-04-04T03:50:00.990Z,6.36
2019-04-04T03:51:03.358Z,6.31
2019-04-04T03:51:56.901Z,6.31
2019-04-04T03:52:56.737Z,6.46
2019-04-04T03:53:56.634Z,6.42
2019-04-04T03:55:00.163Z,6.51
2019-04-04T03:55:59.910Z,6.38
2019-04-04T03:56:56.882Z,6.39
2019-04-04T03:58:00.020Z,6.41
2019-04-04T03:58:59.680Z,6.39
2019-04-04T03:59:56.599Z,6.44
2019-04-04T04:00:56.572Z,6.48
2019-04-04T04:01:56.941Z,6.51
2019-04-04T04:02:56.336Z,6.49
2019-04-04T04:03:59.656Z,6.46
2019-04-04T04:05:00.281Z,6.45
2019-04-04T04:05:56.548Z,6.49
2019-04-04T04:06:56.816Z,6.48
2019-04-04T04:07:56.782Z,6.45
2019-04-04T04:08:59.717Z,6.42
2019-04-04T04:10:01.912Z,6.48
2019-04-04T04:10:56.764Z,6.48
2019-04-04T04:11:56.752Z,6.44
2019-04-04T04:12:56.490Z,6.35
2019-04-04T04:13:56.476Z,6.36
2019-04-04T04:14:59.789Z,6.33
2019-04-04T04:15:56.711Z,6.33
2019-04-04T04:16:56.446Z,6.36
2019-04-04T04:17:56.714Z,6.38
2019-04-04T04:18:59.503Z,6.36
2019-04-04T04:19:56.698Z,6.33
2019-04-04T04:20:56.657Z,6.33
2019-04-04T04:21:56.677Z,6.41
2019-04-04T04:22:56.533Z,6.31
2019-04-04T04:24:00.884Z,6.36
2019-04-04T04:24:56.384Z,6.27
2019-04-04T04:25:56.649Z,6.36
2019-04-04T04:26:56.355Z,6.39
2019-04-04T04:27:56.377Z,6.39
2019-04-04T04:28:58.163Z,6.35
2019-04-04T04:29:56.665Z,6.28
2019-04-04T04:30:56.577Z,6.26
2019-04-04T04:31:56.568Z,6.2
2019-04-04T04:33:00.577Z,6.35
2019-04-04T04:34:00.434Z,6.26
2019-04-04T04:34:56.347Z,6.27
2019-04-04T04:35:56.535Z,6.26
2019-04-04T04:36:56.539Z,6.24
2019-04-04T04:37:58.360Z,6.17
2019-04-04T04:39:01.471Z,6.26
2019-04-04T04:39:56.509Z,6.16
2019-04-04T04:40:56.300Z,6.12
2019-04-04T04:41:59.084Z,6.09
2019-04-04T04:42:59.611Z,6.11
2019-04-04T04:43:56.479Z,6.12
2019-04-04T04:44:56.209Z,6.12
2019-04-04T04:45:56.485Z,6.05
2019-04-04T04:46:56.454Z,6.11
2019-04-04T04:48:00.792Z,6.07
2019-04-04T04:48:56.429Z,6.08
2019-04-04T04:49:59.808Z,6.04
2019-04-04T04:50:56.179Z,5.93
2019-04-04T04:51:56.173Z,5.91
2019-04-04T04:52:56.409Z,5.91
2019-04-04T04:53:56.148Z,6.07
2019-04-04T04:54:58.973Z,6.05
2019-04-04T04:55:59.372Z,6.09
2019-04-04T04:56:56.367Z,6.19
2019-04-04T04:57:58.756Z,6.14
2019-04-04T04:58:57.719Z,6.14
2019-04-04T04:59:56.341Z,6.11
2019-04-04T05:00:57.162Z,6.12
2019-04-04T05:01:56.057Z,6.22
2019-04-04T05:02:58.499Z,6.2
2019-04-04T05:03:58.642Z,6.12
2019-04-04T05:04:57.229Z,6.19
2019-04-04T05:05:56.039Z,6.09
2019-04-04T05:06:56.283Z,6.26
2019-04-04T05:07:57.464Z,6.14
2019-04-04T05:08:55.757Z,6.28
2019-04-04T05:09:55.998Z,6.24
2019-04-04T05:10:55.753Z,6.24
2019-04-04T05:11:56.268Z,6.22
2019-04-04T05:12:58.158Z,6.2
2019-04-04T05:13:58.018Z,6.2
2019-04-04T05:14:56.197Z,6.08
2019-04-04T05:15:56.202Z,6.14
2019-04-04T05:16:56.190Z,6.17
2019-04-04T05:17:55.938Z,6.17
2019-04-04T05:18:56.171Z,6.12
2019-04-04T05:19:56.187Z,6.16
2019-04-04T05:20:57.324Z,6.16
2019-04-04T05:21:56.159Z,6.26
2019-04-04T05:22:56.169Z,6.22
2019-04-04T05:23:56.126Z,6.26
2019-04-04T05:25:11.788Z,6.24
2019-04-04T05:26:02.070Z,6.24
2019-04-04T05:26:56.134Z,6.17
2019-04-04T05:27:56.106Z,6.16
2019-04-04T05:28:59.029Z,6.11
2019-04-04T05:29:55.855Z,6.14
2019-04-04T05:30:56.137Z,6.08
2019-04-04T05:31:56.059Z,6.16
2019-04-04T05:32:59.182Z,6.2
2019-04-04T05:33:58.686Z,6.14
2019-04-04T05:34:55.836Z,6.17
2019-04-04T05:35:56.098Z,6.17
2019-04-04T05:36:55.803Z,6.17
2019-04-04T05:37:56.057Z,6.14
2019-04-04T05:38:55.757Z,6.16
2019-04-04T05:39:57.832Z,6.17
2019-04-04T05:40:58.404Z,6.22
2019-04-04T05:41:55.757Z,6.26
2019-04-04T05:42:55.734Z,6.27
2019-04-04T05:43:55.975Z,6.12
2019-04-04T05:44:56.030Z,6.16
2019-04-04T05:45:55.712Z,6.09
2019-04-04T05:46:56.605Z,6.14
2019-04-04T05:47:59.815Z,6.07
2019-04-04T05:48:55.731Z,6.14
2019-04-04T05:49:55.658Z,6.08
2019-04-04T05:50:55.907Z,6.02
2019-04-04T05:51:55.906Z,6.01
2019-04-04T05:52:55.414Z,6.02
2019-04-04T05:53:55.878Z,5.89
2019-04-04T05:54:55.883Z,5.91
2019-04-04T05:55:55.874Z,5.89
2019-04-04T05:56:55.632Z,5.89
2019-04-04T05:57:56.485Z,5.9
2019-04-04T05:58:58.167Z,5.87
2019-04-04T05:59:58.428Z,5.87
2019-04-04T06:00:57.665Z,5.87
2019-04-04T06:01:55.831Z,5.84
2019-04-04T06:02:55.820Z,5.8
2019-04-04T06:03:55.612Z,5.83
2019-04-04T06:04:59.753Z,5.89
2019-04-04T06:05:55.861Z,5.8
2019-04-04T06:06:58.117Z,5.84
2019-04-04T06:07:55.761Z,5.83
2019-04-04T06:08:55.549Z,5.8
2019-04-04T06:09:55.760Z,5.86
2019-04-04T06:10:55.734Z,5.8
2019-04-04T06:11:58.494Z,5.86
2019-04-04T06:12:58.465Z,5.86
2019-04-04T06:13:56.984Z,5.84
2019-04-04T06:14:55.705Z,5.73
2019-04-04T06:15:55.694Z,5.83
2019-04-04T06:16:55.691Z,5.84
2019-04-04T06:17:55.689Z,5.83
2019-04-04T06:18:55.666Z,5.83
2019-04-04T06:19:55.407Z,5.87
2019-04-04T06:20:55.658Z,5.84
2019-04-04T06:21:55.632Z,5.84
2019-04-04T06:22:56.869Z,5.84
2019-04-04T06:23:57.978Z,5.87
2019-04-04T06:24:58.939Z,5.93
2019-04-04T06:25:55.609Z,6.01
2019-04-04T06:26:55.601Z,5.98
2019-04-04T06:27:55.589Z,6.01
2019-04-04T06:28:55.338Z,5.98
2019-04-04T06:29:55.329Z,5.94
2019-04-04T06:31:00.706Z,6.01
2019-04-04T06:31:55.310Z,5.99
2019-04-04T06:32:55.551Z,5.91
2019-04-04T06:33:55.535Z,5.94
2019-04-04T06:34:56.634Z,5.98
2019-04-04T06:35:55.276Z,5.94
2019-04-04T06:36:55.536Z,5.91
2019-04-04T06:37:56.711Z,6.01
2019-04-04T06:38:58.460Z,5.9
2019-04-04T06:39:58.769Z,6.01
2019-04-04T06:40:55.232Z,6.08
2019-04-04T06:41:55.480Z,5.99
2019-04-04T06:42:55.243Z,6.07
2019-04-04T06:43:55.529Z,6.01
2019-04-04T06:44:56.802Z,5.99
2019-04-04T06:45:55.204Z,6.07
2019-04-04T06:46:58.077Z,6.02
2019-04-04T06:47:57.402Z,5.97
2019-04-04T06:48:55.419Z,6.02
2019-04-04T06:49:55.400Z,5.94
2019-04-04T06:50:55.151Z,6.07
2019-04-04T06:51:55.395Z,6.08
2019-04-04T06:52:58.628Z,6.12
2019-04-04T06:53:59.573Z,6.12
2019-04-04T06:54:57.331Z,6.22
2019-04-04T06:55:55.100Z,6.12
2019-04-04T06:56:55.350Z,6.19
2019-04-04T06:57:55.974Z,6.14
2019-04-04T06:58:55.081Z,6.14
2019-04-04T06:59:56.109Z,6.19
2019-04-04T07:00:55.311Z,6.2
2019-04-04T07:01:56.856Z,6.26
2019-04-04T07:02:57.676Z,6.24
2019-04-04T07:03:59.399Z,6.24
2019-04-04T07:04:55.027Z,6.24
2019-04-04T07:05:55.291Z,6.16
2019-04-04T07:06:54.768Z,6.2
2019-04-04T07:07:55.036Z,6.17
2019-04-04T07:08:55.250Z,6.12
2019-04-04T07:09:55.813Z,6.12
2019-04-04T07:11:15.592Z,6.08
2019-04-04T07:11:55.246Z,5.99
2019-04-04T07:13:21.393Z,5.94
2019-04-04T07:13:54.982Z,5.97
2019-04-04T07:14:55.203Z,5.98
2019-04-04T07:16:10.692Z,5.98
2019-04-04T07:16:55.314Z,5.93
2019-04-04T07:17:54.697Z,6.04
2019-04-04T07:18:54.918Z,6.11
2019-04-04T07:19:54.936Z,6.16
2019-04-04T07:20:54.648Z,6.17
2019-04-04T07:21:56.668Z,6.14
2019-04-04T07:22:58.097Z,6.26
2019-04-04T07:23:58.891Z,6.38
2019-04-04T07:24:54.872Z,6.38
2019-04-04T07:25:58.236Z,6.41
2019-04-04T07:26:55.111Z,6.38
2019-04-04T07:27:55.104Z,6.41
2019-04-04T07:28:58.603Z,6.45
2019-04-04T07:29:56.503Z,6.46
2019-04-04T07:30:57.062Z,6.41
2019-04-04T07:31:55.067Z,6.49
2019-04-04T07:32:54.802Z,6.44
2019-04-04T07:33:54.791Z,6.39
2019-04-04T07:34:54.809Z,6.35
2019-04-04T07:35:54.809Z,6.27
2019-04-04T07:36:55.806Z,6.28
2019-04-04T07:38:00.127Z,6.22
2019-04-04T07:38:54.757Z,6.24
2019-04-04T07:39:55.035Z,6.27
2019-04-04T07:40:54.989Z,6.36
2019-04-04T07:41:54.742Z,6.42
2019-04-04T07:42:54.733Z,6.36
2019-04-04T07:43:58.565Z,6.44
2019-04-04T07:44:56.892Z,6.46
2019-04-04T07:45:59.982Z,6.49
2019-04-04T07:46:54.947Z,6.45
2019-04-04T07:47:54.679Z,6.35
2019-04-04T07:48:56.930Z,6.39
2019-04-04T07:49:57.094Z,6.38
2019-04-04T07:50:58.385Z,6.46
2019-04-04T07:51:54.935Z,6.35
2019-04-04T07:52:54.393Z,6.46
2019-04-04T07:53:54.649Z,6.52
2019-04-04T07:54:54.637Z,6.6
2019-04-04T07:55:54.700Z,6.57
2019-04-04T07:56:54.368Z,6.7
2019-04-04T07:57:56.124Z,6.7
2019-04-04T07:58:54.600Z,6.63
2019-04-04T07:59:54.338Z,6.57
2019-04-04T08:00:54.584Z,6.62
2019-04-04T08:01:55.924Z,6.59
2019-04-04T08:02:54.813Z,6.7
2019-04-04T08:03:54.811Z,6.72
2019-04-04T08:04:54.813Z,6.75
2019-04-04T08:05:54.570Z,6.72
2019-04-04T08:06:54.774Z,6.77
2019-04-04T08:07:54.770Z,6.66
2019-04-04T08:08:54.282Z,6.74
2019-04-04T08:09:54.769Z,6.66
2019-04-04T08:10:54.510Z,6.69
2019-04-04T08:11:54.254Z,6.75
2019-04-04T08:12:54.236Z,6.78
2019-04-04T08:13:54.795Z,6.74
2019-04-04T08:14:54.716Z,6.6
2019-04-04T08:15:54.720Z,6.51
2019-04-04T08:16:54.480Z,6.51
2019-04-04T08:17:54.713Z,6.54
2019-04-04T08:18:54.467Z,6.66
2019-04-04T08:20:04.275Z,6.66
2019-04-04T08:20:54.445Z,6.63
2019-04-04T08:21:54.424Z,6.57
2019-04-04T08:22:54.194Z,6.52
2019-04-04T08:23:54.187Z,6.66
2019-04-04T08:24:54.483Z,6.54
2019-04-04T08:25:54.658Z,6.52
2019-04-04T08:26:54.387Z,6.59
2019-04-04T08:27:54.636Z,6.72
2019-04-04T08:28:54.621Z,6.66
2019-04-04T08:29:54.607Z,6.72
2019-04-04T08:30:54.601Z,6.75
2019-04-04T08:31:54.583Z,6.6
2019-04-04T08:32:54.348Z,6.69
2019-04-04T08:33:54.572Z,6.57
2019-04-04T08:34:54.332Z,6.59
2019-04-04T08:36:05.272Z,6.57
2019-04-04T08:36:54.560Z,6.63
2019-04-04T08:37:54.564Z,6.64
2019-04-04T08:38:54.543Z,6.69
2019-04-04T08:39:54.534Z,6.69
2019-04-04T08:40:54.523Z,6.78
2019-04-04T08:41:57.152Z,6.67
2019-04-04T08:42:54.295Z,6.79
2019-04-04T08:43:54.262Z,6.87
2019-04-04T08:44:54.261Z,6.78
2019-04-04T08:45:54.255Z,6.87
2019-04-04T08:46:55.670Z,6.88
2019-04-04T08:47:54.494Z,7.1
2019-04-04T08:48:54.475Z,7.11
2019-04-04T08:49:54.214Z,7.14
2019-04-04T08:50:54.479Z,7.2
2019-04-04T08:51:54.459Z,7.25
2019-04-04T08:52:54.464Z,7.33
2019-04-04T08:53:54.440Z,7.25
2019-04-04T08:54:53.930Z,7.13
2019-04-04T08:55:54.173Z,7.11
2019-04-04T08:56:54.420Z,7.03
2019-04-04T08:57:54.152Z,7.15
2019-04-04T08:58:56.613Z,7.17
2019-04-04T08:59:54.156Z,7.24
2019-04-04T09:00:54.153Z,7.2
2019-04-04T09:01:54.392Z,7.2
2019-04-04T09:02:54.114Z,7.21
2019-04-04T09:03:54.217Z,7.21
2019-04-04T09:04:54.117Z,7.15
2019-04-04T09:05:53.840Z,7.15
2019-04-04T09:06:53.847Z,7.18
2019-04-04T09:07:54.357Z,7.24
2019-04-04T09:08:53.825Z,7.29
2019-04-04T09:09:54.751Z,7.21
2019-04-04T09:10:54.058Z,7.11
2019-04-04T09:11:54.053Z,7.21
2019-04-04T09:12:54.328Z,7.18
2019-04-04T09:13:53.805Z,7.31
2019-04-04T09:14:54.307Z,7.31
2019-04-04T09:15:53.784Z,7.33
2019-04-04T09:16:54.043Z,7.25
2019-04-04T09:17:54.040Z,7.29
2019-04-04T09:18:53.783Z,7.29
2019-04-04T09:19:53.737Z,7.25
2019-04-04T09:20:53.999Z,7.23
2019-04-04T09:21:54.230Z,7.15
2019-04-04T09:22:54.006Z,7.07
2019-04-04T09:23:54.224Z,7.03
2019-04-04T09:24:53.985Z,7.02
2019-04-04T09:26:07.352Z,7.05
2019-04-04T09:26:54.188Z,7.1
2019-04-04T09:27:53.701Z,7.13
2019-04-04T09:28:53.691Z,7.2
2019-04-04T09:29:54.173Z,7.29
2019-04-04T09:30:53.920Z,7.29
2019-04-04T09:31:53.923Z,7.25
2019-04-04T09:32:54.145Z,7.23
2019-04-04T09:33:54.146Z,7.25
2019-04-04T09:34:54.144Z,7.21
2019-04-04T09:35:53.647Z,7.17
2019-04-04T09:36:54.124Z,7.14
2019-04-04T09:37:53.952Z,7.1
2019-04-04T09:38:53.865Z,7.07
2019-04-04T09:39:54.097Z,7.07
2019-04-04T09:40:53.857Z,7.05
2019-04-04T09:41:53.844Z,7.07
2019-04-04T09:42:53.859Z,7.11
2019-04-04T09:43:53.846Z,7.1
2019-04-04T09:44:53.921Z,7.14
2019-04-04T09:45:54.066Z,7.17
2019-04-04T09:47:07.259Z,7.2
2019-04-04T09:47:53.549Z,7.2
2019-04-04T09:48:54.052Z,7.23
2019-04-04T09:49:54.034Z,7.31
2019-04-04T09:50:53.959Z,7.33
2019-04-04T09:51:53.523Z,7.29
2019-04-04T09:52:54.047Z,7.32
2019-04-04T09:53:58.051Z,7.32
2019-04-04T09:54:53.506Z,7.33
2019-04-04T09:55:53.983Z,7.24
2019-04-04T09:56:53.492Z,7.2
2019-04-04T09:57:53.740Z,7.18
2019-04-04T09:58:57.234Z,7.25
2019-04-04T09:59:53.457Z,7.21
2019-04-04T10:00:53.979Z,7.24
2019-04-04T10:01:53.968Z,7.24
2019-04-04T10:02:53.691Z,7.25
2019-04-04T10:03:53.932Z,7.32
2019-04-04T10:04:53.435Z,7.35
2019-04-04T10:05:53.930Z,7.38
2019-04-04T10:06:53.656Z,7.36
2019-04-04T10:07:53.661Z,7.33
2019-04-04T10:08:53.647Z,7.47
2019-04-04T10:09:53.906Z,7.48
2019-04-04T10:10:53.635Z,7.38
2019-04-04T10:11:53.650Z,7.38
2019-04-04T10:12:53.884Z,7.38
2019-04-04T10:13:53.633Z,7.29
2019-04-04T10:14:53.859Z,7.2
2019-04-04T10:15:53.596Z,7.33
2019-04-04T10:16:53.603Z,7.29
2019-04-04T10:17:54.111Z,7.32
2019-04-04T10:18:53.595Z,7.28
2019-04-04T10:19:53.817Z,7.33
2019-04-04T10:20:53.565Z,7.36
2019-04-04T10:21:53.569Z,7.31
2019-04-04T10:22:53.811Z,7.28
2019-04-04T10:23:53.297Z,7.29
2019-04-04T10:24:53.793Z,7.29
2019-04-04T10:25:53.920Z,7.29
2019-04-04T10:26:53.772Z,7.31
2019-04-04T10:27:53.792Z,7.29
2019-04-04T10:28:53.767Z,7.28
2019-04-04T10:29:53.755Z,7.29
2019-04-04T10:30:53.763Z,7.25
2019-04-04T10:31:53.738Z,7.23
2019-04-04T10:32:53.724Z,7.25
2019-04-04T10:33:53.467Z,7.35
2019-04-04T10:34:53.461Z,7.43
2019-04-04T10:35:53.712Z,7.43
2019-04-04T10:36:53.455Z,7.5
2019-04-04T10:37:53.702Z,7.45
2019-04-04T10:38:53.697Z,7.54
2019-04-04T10:39:53.418Z,7.48
2019-04-04T10:40:53.689Z,7.48
2019-04-04T10:41:53.422Z,7.5
2019-04-04T10:42:53.650Z,7.4
2019-04-04T10:43:53.663Z,7.43
2019-04-04T10:44:53.394Z,7.4
2019-04-04T10:45:53.647Z,7.39
2019-04-04T10:46:53.413Z,7.39
2019-04-04T10:47:53.625Z,7.36
2019-04-04T10:48:53.615Z,7.43
2019-04-04T10:49:53.360Z,7.47
2019-04-04T10:50:53.345Z,7.47
2019-04-04T10:51:53.589Z,7.47
2019-04-04T10:52:53.589Z,7.47
2019-04-04T10:53:53.351Z,7.54
2019-04-04T10:54:53.586Z,7.51
2019-04-04T10:55:53.330Z,7.54
2019-04-04T10:56:53.062Z,7.61
2019-04-04T10:57:53.060Z,7.63
2019-04-04T10:58:53.297Z,7.54
2019-04-04T10:59:56.927Z,7.53
2019-04-04T11:00:53.284Z,7.43
2019-04-04T11:01:53.517Z,7.43
2019-04-04T11:02:53.524Z,7.4
2019-04-04T11:03:53.612Z,7.38
2019-04-04T11:04:53.269Z,7.32
2019-04-04T11:05:53.531Z,7.31
2019-04-04T11:06:53.482Z,7.33
2019-04-04T11:07:53.241Z,7.35
2019-04-04T11:08:53.477Z,7.48
2019-04-04T11:09:53.469Z,7.54
2019-04-04T11:10:53.459Z,7.54
2019-04-04T11:11:53.458Z,7.61
2019-04-04T11:12:53.203Z,7.58
2019-04-04T11:13:53.452Z,7.73
2019-04-04T11:14:52.938Z,7.73
2019-04-04T11:15:53.201Z,7.56
2019-04-04T11:16:52.924Z,7.63
2019-04-04T11:17:53.172Z,7.57
2019-04-04T11:18:53.413Z,7.66
2019-04-04T11:19:53.163Z,7.58
2019-04-04T11:20:53.152Z,7.7
2019-04-04T11:21:53.384Z,7.57
2019-04-04T11:22:53.377Z,7.57
2019-04-04T11:23:53.386Z,7.61
2019-04-04T11:24:52.865Z,7.73
2019-04-04T11:25:53.361Z,7.72
2019-04-04T11:26:53.362Z,7.79
2019-04-04T11:27:53.360Z,7.75
2019-04-04T11:28:53.113Z,7.85
2019-04-04T11:29:53.095Z,7.94
2019-04-04T11:30:53.332Z,7.97
2019-04-04T11:31:53.322Z,8
2019-04-04T11:32:53.855Z,7.93
2019-04-04T11:33:53.303Z,7.98
2019-04-04T11:34:57.993Z,8
2019-04-04T11:35:53.307Z,7.98
2019-04-04T11:36:53.303Z,7.97
2019-04-04T11:37:53.300Z,7.93
2019-04-04T11:38:53.042Z,7.83
2019-04-04T11:39:59.133Z,7.83
2019-04-04T11:40:53.029Z,7.79
2019-04-04T11:41:52.760Z,7.72
2019-04-04T11:42:53.266Z,7.56
2019-04-04T11:43:53.272Z,7.6
2019-04-04T11:44:52.763Z,7.57
2019-04-04T11:45:53.235Z,7.6
2019-04-04T11:46:52.734Z,7.43
2019-04-04T11:47:53.223Z,7.47
2019-04-04T11:48:53.208Z,7.4
2019-04-04T11:49:52.705Z,7.47
2019-04-04T11:50:52.715Z,7.4
2019-04-04T11:51:52.932Z,7.56
2019-04-04T11:52:53.183Z,7.6
2019-04-04T11:53:53.190Z,7.67
2019-04-04T11:54:53.179Z,7.82
2019-04-04T11:55:52.925Z,7.88
2019-04-04T11:56:53.152Z,8.01
2019-04-04T11:57:53.149Z,8.08
2019-04-04T11:58:52.984Z,8.05
2019-04-04T11:59:53.701Z,8.08
2019-04-04T12:00:52.651Z,8.06
2019-04-04T12:01:52.870Z,8.03
2019-04-04T12:02:53.162Z,8.03
2019-04-04T12:03:53.108Z,8.08
2019-04-04T12:04:52.613Z,8.01
2019-04-04T12:05:53.122Z,7.93
2019-04-04T12:06:53.100Z,7.94
2019-04-04T12:07:52.594Z,7.87
2019-04-04T12:08:53.094Z,7.88
2019-04-04T12:09:52.832Z,7.8
2019-04-04T12:10:52.612Z,7.76
2019-04-04T12:11:52.830Z,7.66
2019-04-04T12:12:53.052Z,7.54
2019-04-04T12:13:55.166Z,7.6
2019-04-04T12:14:53.055Z,7.5
2019-04-04T12:15:53.050Z,7.56
2019-04-04T12:16:52.531Z,7.56
2019-04-04T12:17:52.778Z,7.56
2019-04-04T12:18:52.772Z,7.58
2019-04-04T12:19:52.759Z,7.7
2019-04-04T12:20:52.748Z,7.76
2019-04-04T12:21:52.995Z,7.79
2019-04-04T12:22:52.512Z,7.77
2019-04-04T12:23:56.193Z,7.75
2019-04-04T12:24:53.535Z,7.7
2019-04-04T12:25:52.971Z,7.58
2019-04-04T12:26:52.963Z,7.57
2019-04-04T12:27:52.946Z,7.5
2019-04-04T12:28:52.943Z,7.47
2019-04-04T12:29:53.014Z,7.51
2019-04-04T12:30:52.940Z,7.5
2019-04-04T12:31:52.423Z,7.57
2019-04-04T12:32:52.914Z,7.58
2019-04-04T12:33:52.666Z,7.63
2019-04-04T12:34:52.906Z,7.57
2019-04-04T12:35:54.875Z,7.53
2019-04-04T12:36:52.895Z,7.43
2019-04-04T12:37:52.888Z,7.47
2019-04-04T12:38:52.872Z,7.4
2019-04-04T12:39:52.888Z,7.4
2019-04-04T12:40:52.870Z,7.48
2019-04-04T12:41:52.862Z,7.51
2019-04-04T12:42:52.596Z,7.54
2019-04-04T12:43:52.846Z,7.33
2019-04-04T12:44:52.852Z,7.4
2019-04-04T12:45:52.806Z,7.31
2019-04-04T12:46:52.824Z,7.38
2019-04-04T12:47:52.571Z,7.38
2019-04-04T12:48:52.809Z,7.33
2019-04-04T12:49:52.804Z,7.39
2019-04-04T12:50:53.409Z,7.38
2019-04-04T12:51:52.537Z,7.45
2019-04-04T12:52:52.800Z,7.39
2019-04-04T12:53:52.524Z,7.48
2019-04-04T12:54:52.790Z,7.48
2019-04-04T12:55:54.111Z,7.4
2019-04-04T12:56:52.757Z,7.4
2019-04-04T12:57:52.498Z,7.32
2019-04-04T12:58:52.489Z,7.48
2019-04-04T12:59:52.739Z,7.54
2019-04-04T13:00:52.739Z,7.61
2019-04-04T13:01:52.476Z,7.67
2019-04-04T13:02:52.731Z,7.76
2019-04-04T13:03:52.744Z,7.75
2019-04-04T13:04:58.055Z,7.73
2019-04-04T13:05:52.447Z,7.8
2019-04-04T13:06:52.431Z,7.82
2019-04-04T13:07:52.679Z,7.77
2019-04-04T13:08:52.417Z,7.73
2019-04-04T13:09:52.409Z,7.57
2019-04-04T13:10:52.407Z,7.63
2019-04-04T13:11:52.399Z,7.58
2019-04-04T13:12:52.179Z,7.57
2019-04-04T13:13:52.396Z,7.63
2019-04-04T13:14:52.615Z,7.63
2019-04-04T13:15:52.619Z,7.47
2019-04-04T13:16:52.612Z,7.42
2019-04-04T13:17:52.357Z,7.35
2019-04-04T13:18:52.591Z,7.39
2019-04-04T13:19:52.345Z,7.29
2019-04-04T13:20:52.584Z,7.29